createdAt,value
2018-04-14T00:01:22.240Z,100379.84
2018-04-14T00:03:49.640Z,100387.01
2018-04-14T00:06:17.056Z,100377.88
2018-04-14T00:08:45.293Z,100390.16
2018-04-14T00:11:12.724Z,100388.52
2018-04-14T00:13:40.189Z,100393.40
2018-04-14T00:16:07.610Z,100394.34
2018-04-14T00:18:35.101Z,100392.04
2018-04-14T00:21:02.573Z,100397.41
2018-04-14T00:23:30.011Z,100402.27
2018-04-14T00:25:57.417Z,100406.56
2018-04-14T00:28:24.833Z,100410.91
2018-04-14T00:30:52.252Z,100415.27
2018-04-14T00:33:19.737Z,100421.73
2018-04-14T00:35:47.143Z,100422.90
2018-04-14T00:38:14.574Z,100426.48
2018-04-14T00:40:41.993Z,100424.55
2018-04-14T00:43:09.492Z,100434.80
2018-04-14T00:45:36.904Z,100434.16
2018-04-14T00:48:04.301Z,100437.81
2018-04-14T00:50:31.710Z,100435.66
2018-04-14T00:53:11.120Z,100431.88
2018-04-14T00:55:38.532Z,100434.91
2018-04-14T00:58:05.937Z,100444.25
2018-04-14T01:00:33.345Z,100441.00
2018-04-14T01:03:00.753Z,100444.59
2018-04-14T01:05:28.153Z,100447.94
2018-04-14T01:07:55.549Z,100440.81
2018-04-14T01:10:22.959Z,100445.37
2018-04-14T01:12:50.369Z,100445.84
2018-04-14T01:15:17.781Z,100444.19
2018-04-14T01:17:45.248Z,100451.70
2018-04-14T01:20:12.660Z,100442.75
2018-04-14T01:22:40.069Z,100448.48
2018-04-14T01:25:07.459Z,100452.80
2018-04-14T01:27:34.857Z,100452.19
2018-04-14T01:30:02.253Z,100450.53
2018-04-14T01:32:29.659Z,100457.37
2018-04-14T01:34:57.058Z,100462.61
2018-04-14T01:37:24.489Z,100467.17
2018-04-14T01:39:51.954Z,100464.57
2018-04-14T01:42:19.364Z,100463.41
2018-04-14T01:44:46.759Z,100474.09
2018-04-14T01:47:14.171Z,100471.55
2018-04-14T01:49:41.570Z,100481.39
2018-04-14T01:52:09.026Z,100476.48
2018-04-14T01:54:36.426Z,100473.50
2018-04-14T01:57:03.835Z,100478.75
2018-04-14T01:59:31.306Z,100486.94
2018-04-14T02:01:58.726Z,100487.06
2018-04-14T02:04:26.117Z,100493.41
2018-04-14T02:06:53.530Z,100487.58
2018-04-14T02:09:21.330Z,100491.02
2018-04-14T02:11:48.731Z,100491.32
2018-04-14T02:14:16.124Z,100502.63
2018-04-14T02:16:43.520Z,100501.48
2018-04-14T02:19:10.932Z,100504.72
2018-04-14T02:21:38.345Z,100513.95
2018-04-14T02:24:05.742Z,100509.99
2018-04-14T02:26:33.142Z,100516.09
2018-04-14T02:29:00.543Z,100518.52
2018-04-14T02:31:28.038Z,100519.84
2018-04-14T02:33:55.434Z,100520.75
2018-04-14T02:36:22.854Z,100518.63
2018-04-14T02:38:50.263Z,100520.65
2018-04-14T02:41:17.671Z,100525.41
2018-04-14T02:43:45.070Z,100519.75
2018-04-14T02:46:12.473Z,100528.28
2018-04-14T02:48:39.933Z,100533.86
2018-04-14T02:51:07.350Z,100530.45
2018-04-14T02:53:34.760Z,100531.81
2018-04-14T02:56:02.161Z,100538.79
2018-04-14T02:58:29.562Z,100545.31
2018-04-14T03:00:57.026Z,100551.21
2018-04-14T03:03:24.434Z,100558.50
2018-04-14T03:05:51.833Z,100557.45
2018-04-14T03:08:19.239Z,100546.75
2018-04-14T03:10:46.745Z,100562.87
2018-04-14T03:13:14.150Z,100564.23
2018-04-14T03:15:41.542Z,100567.29
2018-04-14T03:18:08.945Z,100570.58
2018-04-14T03:20:36.353Z,100564.14
2018-04-14T03:23:03.824Z,100571.27
2018-04-14T03:25:31.232Z,100568.25
2018-04-14T03:27:58.628Z,100568.35
2018-04-14T03:30:26.035Z,100569.48
2018-04-14T03:32:53.441Z,100569.14
2018-04-14T03:35:20.862Z,100571.28
2018-04-14T03:37:48.260Z,100567.02
2018-04-14T03:40:15.653Z,100562.30
2018-04-14T03:42:43.061Z,100568.73
2018-04-14T03:45:10.454Z,100567.75
2018-04-14T03:47:37.861Z,100568.52
2018-04-14T03:50:05.261Z,100567.77
2018-04-14T03:52:32.663Z,100568.48
2018-04-14T03:55:00.069Z,100574.19
2018-04-14T03:57:27.473Z,100574.13
2018-04-14T03:59:54.956Z,100572.38
2018-04-14T04:02:22.370Z,100566.89
2018-04-14T04:04:49.773Z,100571.76
2018-04-14T04:07:17.180Z,100579.27
2018-04-14T04:09:44.586Z,100575.36
2018-04-14T04:12:11.989Z,100571.86
2018-04-14T04:14:39.410Z,100579.31
2018-04-14T04:17:06.873Z,100575.91
2018-04-14T04:19:46.117Z,100574.73
2018-04-14T04:25:21.924Z,100582.61
2018-04-14T04:27:49.436Z,100580.30
2018-04-14T04:30:16.838Z,100576.81
2018-04-14T04:32:44.242Z,100579.47
2018-04-14T04:35:11.637Z,100580.37
2018-04-14T04:37:39.037Z,100582.48
2018-04-14T04:40:06.431Z,100581.84
2018-04-14T04:42:33.836Z,100587.83
2018-04-14T04:45:01.234Z,100586.14
2018-04-14T04:47:28.632Z,100588.45
2018-04-14T04:49:56.042Z,100587.47
2018-04-14T04:52:23.458Z,100593.11
2018-04-14T04:54:50.854Z,100602.06
2018-04-14T04:57:18.275Z,100596.81
2018-04-14T04:59:45.657Z,100601.02
2018-04-14T05:02:13.065Z,100598.26
2018-04-14T05:04:40.467Z,100596.52
2018-04-14T05:07:07.874Z,100604.45
2018-04-14T05:09:35.269Z,100608.75
2018-04-14T05:12:02.680Z,100615.15
2018-04-14T05:14:30.110Z,100617.64
2018-04-14T05:16:57.513Z,100624.95
2018-04-14T05:19:24.913Z,100627.75
2018-04-14T05:21:52.322Z,100625.39
2018-04-14T05:24:19.735Z,100631.26
2018-04-14T05:26:47.149Z,100634.83
2018-04-14T05:29:14.536Z,100639.68
2018-04-14T05:31:41.953Z,100632.63
2018-04-14T05:34:09.361Z,100638.78
2018-04-14T05:36:36.821Z,100644.34
2018-04-14T05:39:07.036Z,100639.98
2018-04-14T05:41:34.430Z,100651.80
2018-04-14T05:44:01.854Z,100656.26
2018-04-14T05:46:29.313Z,100647.36
2018-04-14T05:48:56.711Z,100652.70
2018-04-14T05:51:24.104Z,100659.88
2018-04-14T05:53:51.513Z,100661.84
2018-04-14T05:56:18.914Z,100663.59
2018-04-14T05:58:46.390Z,100663.24
2018-04-14T06:01:13.855Z,100672.75
2018-04-14T06:03:41.305Z,100667.55
2018-04-14T06:06:08.703Z,100663.81
2018-04-14T06:08:36.217Z,100669.12
2018-04-14T06:11:03.613Z,100672.20
2018-04-14T06:13:31.019Z,100673.03
2018-04-14T06:15:58.417Z,100679.10
2018-04-14T06:18:25.824Z,100678.58
2018-04-14T06:20:53.225Z,100680.63
2018-04-14T06:23:20.628Z,100674.27
2018-04-14T06:25:48.191Z,100688.89
2018-04-14T06:28:15.607Z,100687.06
2018-04-14T06:30:43.018Z,100697.97
2018-04-14T06:33:10.422Z,100700.61
2018-04-14T06:35:37.925Z,100704.63
2018-04-14T06:38:05.387Z,100712.28
2018-04-14T06:40:32.786Z,100710.09
2018-04-14T06:43:00.189Z,100717.73
2018-04-14T06:45:27.658Z,100720.58
2018-04-14T06:47:55.056Z,100728.77
2018-04-14T06:50:22.465Z,100726.77
2018-04-14T06:52:49.871Z,100727.78
2018-04-14T06:55:17.381Z,100729.55
2018-04-14T06:57:44.828Z,100730.88
2018-04-14T07:00:12.294Z,100732.40
2018-04-14T07:02:39.698Z,100727.86
2018-04-14T07:05:07.105Z,100739.55
2018-04-14T07:07:34.505Z,100732.55
2018-04-14T07:10:02.028Z,100736.73
2018-04-14T07:12:29.404Z,100744.91
2018-04-14T07:14:56.797Z,100749.16
2018-04-14T07:17:24.213Z,100752.59
2018-04-14T07:19:51.618Z,100759.02
2018-04-14T07:22:19.030Z,100760.35
2018-04-14T07:24:46.451Z,100765.78
2018-04-14T07:27:13.861Z,100763.53
2018-04-14T07:29:41.261Z,100763.98
2018-04-14T07:32:08.666Z,100767.55
2018-04-14T07:34:36.065Z,100771.45
2018-04-14T07:37:03.521Z,100771.53
2018-04-14T07:39:30.939Z,100782.79
2018-04-14T07:41:58.338Z,100780.65
2018-04-14T07:44:25.750Z,100784.58
2018-04-14T07:46:53.150Z,100779.34
2018-04-14T07:49:20.565Z,100791.29
2018-04-14T07:51:47.968Z,100799.16
2018-04-14T07:54:15.375Z,100796.94
2018-04-14T07:56:42.875Z,100797.50
2018-04-14T07:59:10.286Z,100798.30
2018-04-14T08:01:37.685Z,100801.48
2018-04-14T08:04:05.141Z,100800.34
2018-04-14T08:06:32.551Z,100802.38
2018-04-14T08:08:59.960Z,100813.80
2018-04-14T08:11:27.358Z,100805.44
2018-04-14T08:13:54.756Z,100813.34
2018-04-14T08:16:22.153Z,100817.94
2018-04-14T08:18:49.577Z,100814.80
2018-04-14T08:21:16.977Z,100823.78
2018-04-14T08:23:44.393Z,100829.85
2018-04-14T08:26:11.789Z,100833.32
2018-04-14T08:28:39.296Z,100835.14
2018-04-14T08:31:06.696Z,100831.77
2018-04-14T08:33:34.109Z,100830.50
2018-04-14T08:36:01.506Z,100836.66
2018-04-14T08:38:29.013Z,100839.02
2018-04-14T08:40:56.415Z,100838.45
2018-04-14T08:43:23.824Z,100845.25
2018-04-14T08:45:51.285Z,100841.52
2018-04-14T08:48:18.688Z,100844.14
2018-04-14T08:50:46.090Z,100851.33
2018-04-14T08:53:13.493Z,100853.65
2018-04-14T08:55:40.886Z,100859.89
2018-04-14T08:58:08.362Z,100857.97
2018-04-14T09:00:35.762Z,100867.30
2018-04-14T09:03:03.169Z,100863.11
2018-04-14T09:05:30.633Z,100866.55
2018-04-14T09:07:58.034Z,100871.96
2018-04-14T09:10:25.441Z,100883.30
2018-04-14T09:12:52.896Z,100870.31
2018-04-14T09:15:20.353Z,100879.39
2018-04-14T09:17:47.768Z,100884.45
2018-04-14T09:20:15.160Z,100886.52
2018-04-14T09:22:42.558Z,100883.25
2018-04-14T09:25:09.962Z,100884.25
2018-04-14T09:27:37.365Z,100883.16
2018-04-14T09:30:04.777Z,100887.08
2018-04-14T09:32:32.187Z,100882.62
2018-04-14T09:34:59.581Z,100885.23
2018-04-14T09:37:26.978Z,100893.70
2018-04-14T09:39:54.421Z,100894.05
2018-04-14T09:42:21.825Z,100895.08
2018-04-14T09:44:49.223Z,100895.92
2018-04-14T09:47:16.698Z,100901.71
2018-04-14T09:49:44.155Z,100894.48
2018-04-14T09:52:11.611Z,100902.41
2018-04-14T09:54:39.059Z,100906.19
2018-04-14T09:57:06.517Z,100912.38
2018-04-14T09:59:33.920Z,100920.39
2018-04-14T10:02:01.308Z,100924.66
2018-04-14T10:04:28.717Z,100921.77
2018-04-14T10:06:56.124Z,100921.66
2018-04-14T10:09:23.599Z,100929.20
2018-04-14T10:11:51.001Z,100933.72
2018-04-14T10:14:18.405Z,100929.20
2018-04-14T10:16:45.796Z,100928.20
2018-04-14T10:19:13.196Z,100934.85
2018-04-14T10:21:40.597Z,100935.13
2018-04-14T10:24:07.998Z,100944.61
2018-04-14T10:26:35.480Z,100944.59
2018-04-14T10:29:02.941Z,100945.15
2018-04-14T10:31:30.339Z,100945.85
2018-04-14T10:33:57.740Z,100952.06
2018-04-14T10:36:25.129Z,100950.92
2018-04-14T10:38:52.524Z,100950.22
2018-04-14T10:41:19.925Z,100954.61
2018-04-14T10:43:47.316Z,100963.12
2018-04-14T10:46:14.719Z,100961.89
2018-04-14T10:48:42.117Z,100969.23
2018-04-14T10:51:09.517Z,100965.27
2018-04-14T10:53:36.921Z,100966.69
2018-04-14T10:56:04.321Z,100968.27
2018-04-14T10:58:31.722Z,100975.05
2018-04-14T11:00:59.125Z,100975.55
2018-04-14T11:03:26.517Z,100971.12
2018-04-14T11:05:53.936Z,100985.02
2018-04-14T11:08:21.433Z,100980.67
2018-04-14T11:10:48.841Z,100980.81
2018-04-14T11:13:16.366Z,100980.16
2018-04-14T11:15:43.780Z,100984.30
2018-04-14T11:18:11.174Z,100980.69
2018-04-14T11:20:38.573Z,100985.39
2018-04-14T11:23:06.071Z,100980.80
2018-04-14T11:25:33.469Z,100979.91
2018-04-14T11:28:00.897Z,100988.27
2018-04-14T11:30:28.298Z,100990.69
2018-04-14T11:32:55.693Z,100993.97
2018-04-14T11:35:23.143Z,101006.00
2018-04-14T11:37:50.620Z,100997.20
2018-04-14T11:40:18.022Z,101007.29
2018-04-14T11:42:45.415Z,101006.41
2018-04-14T11:45:12.873Z,101008.19
2018-04-14T11:47:40.269Z,101006.34
2018-04-14T11:50:07.682Z,101014.12
2018-04-14T11:52:35.133Z,101018.77
2018-04-14T11:55:02.549Z,101026.61
2018-04-14T11:57:29.933Z,101027.84
2018-04-14T11:59:57.336Z,101033.16
2018-04-14T12:02:24.749Z,101037.92
2018-04-14T12:04:52.132Z,101040.87
2018-04-14T12:07:19.529Z,101046.71
2018-04-14T12:09:47.065Z,101051.13
2018-04-14T12:12:14.484Z,101049.19
2018-04-14T12:14:41.896Z,101057.63
2018-04-14T12:17:09.284Z,101048.94
2018-04-14T12:19:36.684Z,101051.40
2018-04-14T12:22:04.081Z,101053.92
2018-04-14T12:24:31.489Z,101054.61
2018-04-14T12:26:58.879Z,101055.59
2018-04-14T12:29:26.301Z,101050.67
2018-04-14T12:31:53.685Z,101058.70
2018-04-14T12:34:21.085Z,101057.04
2018-04-14T12:36:48.489Z,101056.27
2018-04-14T12:39:15.881Z,101057.52
2018-04-14T12:41:43.278Z,101059.19
2018-04-14T12:44:10.672Z,101064.95
2018-04-14T12:46:38.073Z,101065.59
2018-04-14T12:49:05.475Z,101071.04
2018-04-14T12:51:32.881Z,101070.66
2018-04-14T12:54:00.277Z,101069.92
2018-04-14T12:56:27.673Z,101076.96
2018-04-14T12:58:55.073Z,101072.58
2018-04-14T13:01:22.474Z,101074.27
2018-04-14T13:03:49.872Z,101074.81
2018-04-14T13:06:17.329Z,101075.79
2018-04-14T13:08:44.725Z,101077.02
2018-04-14T13:11:12.134Z,101079.83
2018-04-14T13:13:39.597Z,101082.62
2018-04-14T13:16:07.054Z,101093.37
2018-04-14T13:18:34.464Z,101096.03
2018-04-14T13:21:01.939Z,101086.45
2018-04-14T13:23:29.325Z,101096.15
2018-04-14T13:25:56.730Z,101099.37
2018-04-14T13:28:24.124Z,101106.84
2018-04-14T13:30:51.529Z,101109.92
2018-04-14T13:33:18.950Z,101106.53
2018-04-14T13:35:46.349Z,101107.51
2018-04-14T13:38:13.751Z,101112.86
2018-04-14T13:40:41.209Z,101116.64
2018-04-14T13:43:08.675Z,101117.50
2018-04-14T13:45:36.086Z,101115.75
2018-04-14T13:48:03.479Z,101120.41
2018-04-14T13:50:30.890Z,101121.00
2018-04-14T13:52:58.400Z,101127.23
2018-04-14T13:55:25.815Z,101122.18
2018-04-14T13:57:53.309Z,101126.08
2018-04-14T14:00:20.775Z,101126.69
2018-04-14T14:02:48.153Z,101127.80
2018-04-14T14:05:15.875Z,101125.52
2018-04-14T14:07:43.353Z,101126.61
2018-04-14T14:10:10.733Z,101128.66
2018-04-14T14:12:38.131Z,101126.06
2018-04-14T14:15:05.538Z,101129.89
2018-04-14T14:17:32.925Z,101124.38
2018-04-14T14:20:00.332Z,101121.09
2018-04-14T14:22:27.785Z,101127.58
2018-04-14T14:24:55.331Z,101126.77
2018-04-14T14:27:22.738Z,101130.45
2018-04-14T14:29:50.270Z,101130.56
2018-04-14T14:32:17.884Z,101135.27
2018-04-14T14:34:45.285Z,101135.46
2018-04-14T14:37:12.775Z,101130.92
2018-04-14T14:39:40.169Z,101133.23
2018-04-14T14:42:07.582Z,101130.09
2018-04-14T14:44:34.979Z,101135.61
2018-04-14T14:47:02.379Z,101135.83
2018-04-14T14:49:29.777Z,101130.88
2018-04-14T14:51:57.169Z,101135.95
2018-04-14T14:54:24.573Z,101131.83
2018-04-14T14:56:51.964Z,101138.63
2018-04-14T14:59:19.365Z,101133.38
2018-04-14T15:01:46.761Z,101127.86
2018-04-14T15:04:14.158Z,101128.34
2018-04-14T15:06:41.567Z,101126.67
2018-04-14T15:09:08.977Z,101124.09
2018-04-14T15:11:36.448Z,101127.67
2018-04-14T15:14:03.848Z,101127.59
2018-04-14T15:16:31.366Z,101125.58
2018-04-14T15:18:58.759Z,101130.77
2018-04-14T15:21:26.174Z,101130.91
2018-04-14T15:23:53.577Z,101133.16
2018-04-14T15:26:20.976Z,101137.61
2018-04-14T15:28:48.374Z,101140.61
2018-04-14T15:31:15.801Z,101139.14
2018-04-14T15:33:43.257Z,101139.70
2018-04-14T15:36:10.659Z,101138.50
2018-04-14T15:38:38.054Z,101137.47
2018-04-14T15:41:05.460Z,101136.14
2018-04-14T15:43:33.817Z,101137.16
2018-04-14T15:46:01.217Z,101139.40
2018-04-14T15:48:28.677Z,101148.13
2018-04-14T15:50:56.082Z,101142.66
2018-04-14T15:53:23.480Z,101139.08
2018-04-14T15:55:50.974Z,101136.61
2018-04-14T15:58:18.433Z,101140.52
2018-04-14T16:00:45.837Z,101133.07
2018-04-14T16:03:13.232Z,101136.38
2018-04-14T16:05:40.704Z,101134.97
2018-04-14T16:08:08.101Z,101132.57
2018-04-14T16:10:35.503Z,101137.07
2018-04-14T16:13:02.901Z,101134.33
2018-04-14T16:15:30.302Z,101131.14
2018-04-14T16:17:57.797Z,101128.27
2018-04-14T16:20:25.200Z,101126.41
2018-04-14T16:22:52.673Z,101122.02
2018-04-14T16:25:20.157Z,101120.41
2018-04-14T16:27:47.565Z,101123.51
2018-04-14T16:30:15.075Z,101127.92
2018-04-14T16:32:42.477Z,101128.48
2018-04-14T16:35:09.877Z,101122.70
2018-04-14T16:37:37.357Z,101127.50
2018-04-14T16:40:04.765Z,101121.12
2018-04-14T16:42:32.169Z,101117.89
2018-04-14T16:44:59.585Z,101121.52
2018-04-14T16:47:27.084Z,101125.66
2018-04-14T16:49:54.480Z,101120.17
2018-04-14T16:52:21.899Z,101117.49
2018-04-14T16:54:49.300Z,101113.99
2018-04-14T16:57:16.713Z,101120.67
2018-04-14T16:59:44.113Z,101107.89
2018-04-14T17:02:11.630Z,101100.62
2018-04-14T17:04:39.091Z,101097.65
2018-04-14T17:07:06.490Z,101098.84
2018-04-14T17:09:33.894Z,101097.31
2018-04-14T17:12:01.305Z,101097.41
2018-04-14T17:14:28.714Z,101093.95
2018-04-14T17:16:56.176Z,101087.38
2018-04-14T17:19:23.621Z,101082.04
2018-04-14T17:21:51.090Z,101088.95
2018-04-14T17:24:18.484Z,101088.03
2018-04-14T17:26:45.893Z,101084.17
2018-04-14T17:29:13.285Z,101091.68
2018-04-14T17:31:40.720Z,101091.72
2018-04-14T17:34:08.115Z,101092.62
2018-04-14T17:36:35.515Z,101100.39
2018-04-14T17:39:02.920Z,101103.70
2018-04-14T17:41:30.326Z,101102.11
2018-04-14T17:43:57.721Z,101101.79
2018-04-14T17:46:25.126Z,101096.77
2018-04-14T17:48:52.536Z,101098.44
2018-04-14T17:51:20.049Z,101097.69
2018-04-14T17:53:47.445Z,101100.81
2018-04-14T17:56:14.865Z,101101.45
2018-04-14T17:58:42.254Z,101104.42
2018-04-14T18:01:09.655Z,101104.91
2018-04-14T18:03:37.061Z,101104.10
2018-04-14T18:06:04.480Z,101111.62
2018-04-14T18:08:31.881Z,101114.40
2018-04-14T18:10:59.299Z,101113.14
2018-04-14T18:13:26.741Z,101115.28
2018-04-14T18:15:54.201Z,101123.12
2018-04-14T18:18:21.724Z,101129.80
2018-04-14T18:20:49.271Z,101122.49
2018-04-14T18:23:16.728Z,101125.16
2018-04-14T18:25:44.149Z,101122.30
2018-04-14T18:28:11.677Z,101130.25
2018-04-14T18:30:39.111Z,101139.41
2018-04-14T18:33:06.510Z,101137.82
2018-04-14T18:35:33.930Z,101142.95
2018-04-14T18:38:01.343Z,101147.64
2018-04-14T18:40:28.782Z,101153.22
2018-04-14T18:42:56.226Z,101152.93
2018-04-14T18:45:23.641Z,101156.34
2018-04-14T18:47:51.146Z,101166.94
2018-04-14T18:50:19.469Z,101162.45
2018-04-14T18:52:46.902Z,101162.84
2018-04-14T18:55:14.289Z,101161.36
2018-04-14T18:57:41.697Z,101164.80
2018-04-14T19:00:09.166Z,101167.84
2018-04-14T19:02:36.584Z,101172.20
2018-04-14T19:05:03.986Z,101174.12
2018-04-14T19:07:31.428Z,101167.70
2018-04-14T19:09:58.817Z,101174.45
2018-04-14T19:12:26.227Z,101167.33
2018-04-14T19:14:53.617Z,101162.59
2018-04-14T19:17:21.029Z,101161.78
2018-04-14T19:19:48.420Z,101158.83
2018-04-14T19:22:15.821Z,101152.70
2018-04-14T19:24:43.869Z,101155.05
2018-04-14T19:27:11.274Z,101152.52
2018-04-14T19:29:38.665Z,101152.03
2018-04-14T19:32:06.187Z,101147.66
2018-04-14T19:34:33.599Z,101149.03
2018-04-14T19:37:01.017Z,101144.00
2018-04-14T19:39:28.408Z,101150.80
2018-04-14T19:41:55.834Z,101159.11
2018-04-14T19:44:23.279Z,101165.31
2018-04-14T19:46:50.693Z,101153.55
2018-04-14T19:49:18.096Z,101153.33
2018-04-14T19:51:45.511Z,101150.53
2018-04-14T19:54:12.914Z,101154.66
2018-04-14T19:56:40.356Z,101147.81
2018-04-14T19:59:07.757Z,101147.76
2018-04-14T20:01:35.174Z,101145.87
2018-04-14T20:04:02.584Z,101134.84
2018-04-14T20:06:29.976Z,101137.42
2018-04-14T20:08:57.462Z,101127.30
2018-04-14T20:11:24.849Z,101129.42
2018-04-14T20:13:52.348Z,101130.13
2018-04-14T20:16:19.750Z,101126.72
2018-04-14T20:18:47.150Z,101132.39
2018-04-14T20:21:14.545Z,101138.02
2018-04-14T20:23:41.993Z,101141.49
2018-04-14T20:26:09.433Z,101142.95
2018-04-14T20:28:36.842Z,101139.20
2018-04-14T20:31:04.403Z,101137.08
2018-04-14T20:33:31.778Z,101140.66
2018-04-14T20:35:59.268Z,101147.02
2018-04-14T20:38:26.677Z,101146.92
2018-04-14T20:40:54.185Z,101143.16
2018-04-14T20:43:21.643Z,101135.45
2018-04-14T20:45:49.035Z,101137.81
2018-04-14T20:48:16.437Z,101129.09
2018-04-14T20:50:43.833Z,101129.63
2018-04-14T20:53:11.237Z,101124.70
2018-04-14T20:55:38.630Z,101124.59
2018-04-14T20:58:06.037Z,101126.66
2018-04-14T21:00:33.445Z,101119.60
2018-04-14T21:03:00.874Z,101126.98
2018-04-14T21:05:28.269Z,101121.69
2018-04-14T21:07:55.674Z,101127.97
2018-04-14T21:10:23.100Z,101123.37
2018-04-14T21:12:50.523Z,101127.20
2018-04-14T21:15:17.900Z,101122.53
2018-04-14T21:17:45.429Z,101122.23
2018-04-14T21:20:12.837Z,101116.98
2018-04-14T21:22:40.239Z,101118.40
2018-04-14T21:25:07.677Z,101119.48
2018-04-14T21:27:35.097Z,101124.42
2018-04-14T21:30:02.582Z,101124.73
2018-04-14T21:32:29.997Z,101122.46
2018-04-14T21:34:57.403Z,101121.86
2018-04-14T21:37:24.801Z,101125.15
2018-04-14T21:39:52.260Z,101131.69
2018-04-14T21:42:19.661Z,101133.00
2018-04-14T21:44:47.057Z,101140.17
2018-04-14T21:47:14.454Z,101140.66
2018-04-14T21:49:41.896Z,101143.61
2018-04-14T21:52:09.304Z,101137.77
2018-04-14T21:54:36.710Z,101135.13
2018-04-14T21:57:04.097Z,101134.50
2018-04-14T21:59:31.518Z,101130.39
2018-04-14T22:01:58.965Z,101124.66
2018-04-14T22:04:26.365Z,101119.47
2018-04-14T22:06:53.765Z,101117.98
2018-04-14T22:09:21.182Z,101119.54
2018-04-14T22:11:48.577Z,101121.34
2018-04-14T22:14:34.858Z,101120.12
2018-04-14T22:17:02.201Z,101120.27
2018-04-14T22:19:29.602Z,101132.75
2018-04-14T22:21:57.049Z,101133.28
2018-04-14T22:24:24.454Z,101144.02
2018-04-14T22:26:51.854Z,101145.06
2018-04-14T22:29:20.237Z,101154.78
2018-04-14T22:31:47.629Z,101142.81
2018-04-14T22:34:15.046Z,101147.09
2018-04-14T22:36:42.510Z,101138.91
2018-04-14T22:39:09.911Z,101140.19
2018-04-14T22:41:37.417Z,101133.92
2018-04-14T22:44:04.837Z,101138.14
2018-04-14T22:46:32.226Z,101136.84
2018-04-14T22:48:59.685Z,101134.30
2018-04-14T22:51:27.089Z,101137.95
2018-04-14T22:53:54.481Z,101133.69
2018-04-14T22:56:21.879Z,101136.14
2018-04-14T22:58:49.276Z,101138.69
2018-04-14T23:01:16.756Z,101140.29
2018-04-14T23:03:44.171Z,101135.13
2018-04-14T23:06:11.669Z,101133.59
2018-04-14T23:08:39.068Z,101122.97
2018-04-14T23:11:06.461Z,101120.81
2018-04-14T23:13:33.945Z,101124.52
2018-04-14T23:16:01.338Z,101119.95
2018-04-14T23:18:28.755Z,101111.79
2018-04-14T23:20:56.153Z,101108.89
2018-04-14T23:23:23.546Z,101099.98
2018-04-14T23:25:50.945Z,101102.17
2018-04-14T23:28:18.369Z,101089.00
2018-04-14T23:30:45.786Z,101078.34
2018-04-14T23:33:13.176Z,101080.79
2018-04-14T23:35:40.628Z,101079.19
2018-04-14T23:38:08.089Z,101072.37
2018-04-14T23:40:35.481Z,101076.97
2018-04-14T23:43:02.881Z,101073.87
2018-04-14T23:45:30.358Z,101083.11
2018-04-14T23:47:57.765Z,101085.44
2018-04-14T23:50:25.224Z,101078.95
2018-04-14T23:52:52.620Z,101072.27
2018-04-14T23:55:20.013Z,101079.31
2018-04-14T23:57:47.413Z,101074.16
